Time;durP1;ratioP1;P1;durP2;ratioP2;P2;SDS_P1;SDS_P2;PMS_P1;PMS_P2;Temp;Humidity;BMP_temperature;BMP_pressure;BME280_temperature;BME280_humidity;BME280_pressure;Samples;Min_cycle;Max_cycle;Signal;HPM_P1;HPM_P2
2022/02/20 00:01:35;;;;;;;3.58;1.40;;;10.30;77.30;;;;;;5015350;28;20032;-77
2022/02/20 00:04:02;;;;;;;3.95;1.70;;;10.40;77.40;;;;;;5014396;28;20044;-78
2022/02/20 00:06:29;;;;;;;3.28;1.40;;;10.40;77.50;;;;;;5015390;28;20025;-76
2022/02/20 00:08:54;;;;;;;3.90;1.45;;;10.30;77.50;;;;;;5014761;28;20025;-81
2022/02/20 00:11:20;;;;;;;5.10;1.58;;;10.40;77.60;;;;;;5032916;28;20152;-77
2022/02/20 00:13:46;;;;;;;3.22;1.48;;;10.40;77.70;;;;;;5012001;28;20071;-78
2022/02/20 00:16:11;;;;;;;3.47;1.50;;;10.40;77.70;;;;;;4999332;28;20026;-77
2022/02/20 00:18:37;;;;;;;4.75;1.50;;;10.40;77.70;;;;;;4995224;28;20189;-79
2022/02/20 00:21:03;;;;;;;3.78;1.65;;;10.40;77.70;;;;;;5027182;28;20032;-76
2022/02/20 00:23:29;;;;;;;3.13;1.40;;;10.40;77.90;;;;;;5014862;28;20022;-80
2022/02/20 00:25:54;;;;;;;4.05;1.55;;;10.30;77.90;;;;;;5032496;28;20461;-77
2022/02/20 00:28:20;;;;;;;4.50;1.70;;;10.30;78.00;;;;;;5015442;28;20034;-77
2022/02/20 00:30:46;;;;;;;3.35;1.25;;;10.40;78.20;;;;;;5015603;28;20060;-77
2022/02/20 00:33:13;;;;;;;3.08;1.48;;;10.40;78.10;;;;;;5015718;28;20052;-77
2022/02/20 00:35:39;;;;;;;2.47;1.35;;;10.40;78.10;;;;;;5015262;28;20029;-78
2022/02/20 00:38:06;;;;;;;4.75;1.58;;;10.40;78.20;;;;;;5015214;28;20022;-80
2022/02/20 00:40:32;;;;;;;3.20;1.40;;;10.40;78.20;;;;;;5015187;28;20452;-77
2022/02/20 00:42:59;;;;;;;4.10;1.48;;;10.30;78.30;;;;;;5032878;28;20502;-80
2022/02/20 00:45:25;;;;;;;3.58;1.42;;;10.30;78.40;;;;;;5015069;28;20124;-77
2022/02/20 00:47:51;;;;;;;2.63;1.40;;;10.40;78.60;;;;;;5015393;28;20082;-77
2022/02/20 00:50:16;;;;;;;3.17;1.30;;;10.30;78.50;;;;;;5014780;28;20116;-77
2022/02/20 00:52:42;;;;;;;3.67;1.30;;;10.40;78.50;;;;;;5015001;28;20119;-79
2022/02/20 00:55:08;;;;;;;2.65;1.23;;;10.40;78.60;;;;;;5015187;28;20471;-78
2022/02/20 00:57:34;;;;;;;2.10;1.20;;;10.40;78.60;;;;;;5031872;28;20052;-79
2022/02/20 01:00:00;;;;;;;2.60;1.30;;;10.30;78.60;;;;;;5032621;28;20494;-77
2022/02/20 01:02:26;;;;;;;3.40;1.30;;;10.30;78.70;;;;;;5032765;28;20550;-78
2022/02/20 01:04:52;;;;;;;3.58;1.27;;;10.40;79.30;;;;;;5014435;28;20034;-77
2022/02/20 01:07:18;;;;;;;3.30;1.50;;;10.30;78.70;;;;;;5014509;28;20144;-78
2022/02/20 01:09:44;;;;;;;4.47;1.52;;;10.40;78.80;;;;;;5014341;28;20033;-77
2022/02/20 01:12:10;;;;;;;4.07;1.45;;;10.40;78.90;;;;;;5014628;28;20925;-77
2022/02/20 01:14:36;;;;;;;4.07;1.45;;;10.40;78.90;;;;;;5014463;28;20025;-77
2022/02/20 01:17:02;;;;;;;4.70;1.30;;;10.40;78.90;;;;;;5014506;28;20501;-79
2022/02/20 01:19:27;;;;;;;5.60;1.52;;;10.40;79.00;;;;;;5014086;28;20068;-77
2022/02/20 01:21:53;;;;;;;2.78;1.40;;;10.40;79.10;;;;;;5032065;28;20061;-78
2022/02/20 01:24:18;;;;;;;2.83;1.13;;;10.40;79.10;;;;;;5014559;28;20080;-77
2022/02/20 01:26:44;;;;;;;5.28;1.50;;;10.40;79.20;;;;;;5014519;28;20033;-77
2022/02/20 01:29:09;;;;;;;4.47;1.60;;;10.40;79.30;;;;;;5012799;28;20040;-76
2022/02/20 01:31:35;;;;;;;4.22;1.55;;;10.30;79.20;;;;;;5012269;28;20107;-78
2022/02/20 01:34:00;;;;;;;3.65;1.42;;;10.40;79.20;;;;;;5014209;28;20025;-77
2022/02/20 01:36:26;;;;;;;3.75;1.75;;;10.40;79.20;;;;;;5031993;28;20116;-78
2022/02/20 01:38:52;;;;;;;4.97;1.40;;;10.40;79.20;;;;;;5013785;28;20064;-79
2022/02/20 01:41:19;;;;;;;5.10;1.50;;;10.40;79.20;;;;;;5031624;28;20025;-77
2022/02/20 01:43:46;;;;;;;3.38;1.52;;;10.40;79.20;;;;;;5013802;28;20021;-77
2022/02/20 01:46:12;;;;;;;3.63;1.55;;;10.40;79.30;;;;;;5014110;28;20124;-77
2022/02/20 01:48:37;;;;;;;3.60;1.50;;;10.40;79.30;;;;;;5013578;28;20137;-78
2022/02/20 01:51:04;;;;;;;4.72;1.60;;;10.40;79.30;;;;;;5013095;28;20025;-77
2022/02/20 01:53:30;;;;;;;4.03;1.35;;;10.30;79.30;;;;;;5012797;28;20487;-77
2022/02/20 01:55:56;;;;;;;5.97;1.90;;;10.30;79.40;;;;;;5013439;28;20025;-78
2022/02/20 01:58:21;;;;;;;4.25;1.63;;;10.40;79.50;;;;;;5012787;28;20022;-77
2022/02/20 02:00:47;;;;;;;4.25;1.40;;;10.30;79.30;;;;;;5012832;28;20022;-77
2022/02/20 02:03:16;;;;;;;5.65;1.63;;;10.30;79.30;;;;;;5013138;28;20033;-78
2022/02/20 02:05:45;;;;;;;5.45;2.00;;;10.30;79.30;;;;;;5014141;28;20033;-79
2022/02/20 02:08:11;;;;;;;5.53;1.60;;;10.40;79.20;;;;;;5013495;28;20048;-77
2022/02/20 02:10:37;;;;;;;5.28;1.48;;;10.40;79.20;;;;;;5013070;28;20029;-77
2022/02/20 02:13:03;;;;;;;3.85;1.60;;;10.40;79.20;;;;;;5030920;28;20029;-77
2022/02/20 02:15:29;;;;;;;6.93;1.58;;;10.30;79.30;;;;;;5012446;28;20049;-77
2022/02/20 02:17:55;;;;;;;5.97;1.50;;;10.30;79.20;;;;;;5013238;28;20070;-77
2022/02/20 02:20:20;;;;;;;4.43;1.85;;;10.40;79.30;;;;;;5031241;28;20030;-77
2022/02/20 02:22:46;;;;;;;5.68;1.48;;;10.40;79.30;;;;;;5013486;28;20451;-78
2022/02/20 02:25:11;;;;;;;5.38;1.50;;;10.30;79.20;;;;;;5013678;28;20912;-79
2022/02/20 02:27:37;;;;;;;5.22;1.50;;;10.30;79.10;;;;;;5013509;28;20122;-77
2022/02/20 02:30:09;;;;;;;6.35;1.67;;;10.30;79.10;;;;;;5013400;28;20033;-78
2022/02/20 02:32:34;;;;;;;3.65;1.30;;;10.40;79.20;;;;;;5013408;28;20080;-78
2022/02/20 02:35:00;;;;;;;5.57;1.48;;;10.30;79.10;;;;;;5012908;28;20042;-76
2022/02/20 02:37:26;;;;;;;5.53;1.63;;;10.30;79.00;;;;;;5013257;28;20037;-79
2022/02/20 02:39:51;;;;;;;5.72;1.73;;;10.40;79.00;;;;;;5013701;28;20540;-78
2022/02/20 02:42:17;;;;;;;6.13;1.50;;;10.30;79.10;;;;;;5013456;28;20021;-78
2022/02/20 02:44:44;;;;;;;5.53;1.30;;;10.30;79.10;;;;;;5034957;28;20056;-77
2022/02/20 02:47:10;;;;;;;5.50;1.52;;;10.30;79.10;;;;;;5017266;28;20034;-77
2022/02/20 02:49:36;;;;;;;6.47;1.75;;;10.30;79.10;;;;;;4997497;28;20038;-77
2022/02/20 02:52:02;;;;;;;7.53;1.60;;;10.40;79.20;;;;;;5015685;28;20026;-79
2022/02/20 02:54:28;;;;;;;7.35;1.50;;;10.30;79.20;;;;;;5032566;28;20120;-77
2022/02/20 02:56:53;;;;;;;7.43;1.58;;;10.40;79.30;;;;;;5017040;28;20112;-78
2022/02/20 02:59:19;;;;;;;7.18;1.67;;;10.40;79.30;;;;;;5016790;28;20479;-77
2022/02/20 03:01:46;;;;;;;4.50;1.42;;;10.40;79.20;;;;;;5017078;28;20021;-80
2022/02/20 03:04:12;;;;;;;4.60;1.45;;;10.40;79.20;;;;;;5034654;28;20033;-80
2022/02/20 03:06:38;;;;;;;6.10;1.80;;;10.40;79.20;;;;;;5016949;28;20021;-77
2022/02/20 03:09:08;;;;;;;4.55;1.58;;;10.40;79.30;;;;;;5016847;28;20044;-77
2022/02/20 03:11:35;;;;;;;5.20;1.85;;;10.40;79.30;;;;;;5016792;28;20029;-77
2022/02/20 03:14:01;;;;;;;7.78;1.63;;;10.40;79.30;;;;;;5016899;28;20025;-80
2022/02/20 03:16:28;;;;;;;6.78;1.52;;;10.40;79.40;;;;;;5017017;28;20040;-77
2022/02/20 03:18:54;;;;;;;5.47;1.50;;;10.30;79.20;;;;;;5016575;28;20762;-77
2022/02/20 03:21:20;;;;;;;7.32;1.77;;;10.40;79.20;;;;;;5017065;28;20116;-77
2022/02/20 03:23:45;;;;;;;3.63;1.40;;;10.30;79.00;;;;;;5016255;28;20032;-79
2022/02/20 03:26:11;;;;;;;6.30;1.70;;;10.30;79.00;;;;;;5034631;28;20037;-77
2022/02/20 03:28:36;;;;;;;4.93;1.70;;;10.30;79.10;;;;;;5016404;28;20095;-79
2022/02/20 03:31:02;;;;;;;7.05;1.98;;;10.30;79.10;;;;;;5016120;28;20026;-78
2022/02/20 03:33:28;;;;;;;6.15;1.65;;;10.30;79.00;;;;;;5016924;28;20404;-77
2022/02/20 03:35:54;;;;;;;7.18;1.65;;;10.40;79.10;;;;;;5015909;28;20040;-78
2022/02/20 03:38:19;;;;;;;5.95;1.50;;;10.30;79.10;;;;;;5013476;28;20025;-76
2022/02/20 03:40:45;;;;;;;6.55;1.90;;;10.40;79.10;;;;;;5015089;28;20420;-80
2022/02/20 03:43:11;;;;;;;7.85;1.60;;;10.30;79.00;;;;;;5032249;28;20031;-77
2022/02/20 03:45:36;;;;;;;5.28;1.60;;;10.30;79.00;;;;;;5033226;28;20029;-78
2022/02/20 03:48:02;;;;;;;6.32;1.98;;;10.30;79.00;;;;;;5014899;28;20029;-77
2022/02/20 03:50:27;;;;;;;5.82;2.15;;;10.40;79.10;;;;;;5014780;28;20083;-76
2022/02/20 03:52:53;;;;;;;5.03;1.65;;;10.30;79.20;;;;;;5015363;28;20029;-77
2022/02/20 03:55:19;;;;;;;5.25;1.73;;;10.30;79.10;;;;;;5031772;28;20025;-76
2022/02/20 03:57:46;;;;;;;4.72;1.75;;;10.40;79.10;;;;;;5014738;28;20487;-77
2022/02/20 04:00:14;;;;;;;6.28;2.13;;;10.30;79.10;;;;;;5032779;28;20026;-77
2022/02/20 04:02:40;;;;;;;5.80;1.60;;;10.30;79.10;;;;;;5014531;28;20121;-76
2022/02/20 04:05:12;;;;;;;6.22;1.80;;;10.40;79.20;;;;;;5015226;28;20033;-79
2022/02/20 04:07:38;;;;;;;6.40;1.80;;;10.30;79.20;;;;;;5032529;28;20095;-78
2022/02/20 04:10:06;;;;;;;7.25;1.90;;;10.30;79.10;;;;;;5014335;28;20033;-76
2022/02/20 04:12:32;;;;;;;4.68;1.55;;;10.30;79.20;;;;;;5014630;28;20057;-76
2022/02/20 04:14:57;;;;;;;4.30;1.63;;;10.30;79.10;;;;;;5014585;28;20061;-79
2022/02/20 04:17:24;;;;;;;4.53;1.48;;;10.30;79.20;;;;;;5014218;28;20018;-77
2022/02/20 04:19:50;;;;;;;4.72;1.70;;;10.30;79.20;;;;;;5014998;28;20030;-78
2022/02/20 04:22:16;;;;;;;6.03;1.65;;;10.40;79.30;;;;;;5013447;28;20073;-77
2022/02/20 04:24:42;;;;;;;5.20;1.92;;;10.30;79.20;;;;;;5022175;28;20053;-77
2022/02/20 04:27:07;;;;;;;6.60;1.70;;;10.30;79.30;;;;;;5015703;28;20071;-77
2022/02/20 04:29:33;;;;;;;6.68;1.80;;;10.40;79.30;;;;;;5033119;28;20037;-77
2022/02/20 04:31:59;;;;;;;5.22;1.98;;;10.30;79.30;;;;;;5015320;28;20038;-77
2022/02/20 04:34:25;;;;;;;6.43;1.90;;;10.30;79.30;;;;;;5014627;28;20029;-78
2022/02/20 04:36:51;;;;;;;6.90;1.88;;;10.30;79.20;;;;;;5014853;28;20029;-77
2022/02/20 04:39:17;;;;;;;6.32;2.05;;;10.30;79.10;;;;;;5032521;28;20056;-77
2022/02/20 04:41:42;;;;;;;5.70;1.80;;;10.30;79.20;;;;;;5015430;28;20136;-76
2022/02/20 04:44:08;;;;;;;5.55;1.80;;;10.30;79.20;;;;;;5033727;28;20029;-77
2022/02/20 04:46:35;;;;;;;6.57;2.00;;;10.30;79.30;;;;;;5014878;28;20478;-79
2022/02/20 04:49:02;;;;;;;5.00;2.13;;;10.40;79.40;;;;;;5014462;28;20048;-77
2022/02/20 04:51:28;;;;;;;5.10;1.63;;;10.30;79.30;;;;;;5014900;28;20056;-78
2022/02/20 04:53:54;;;;;;;4.70;1.80;;;10.30;79.40;;;;;;5014841;28;20471;-77
2022/02/20 04:56:19;;;;;;;5.60;1.80;;;10.30;79.30;;;;;;5015170;28;20036;-77
2022/02/20 04:58:45;;;;;;;6.03;2.40;;;10.30;79.30;;;;;;5032778;28;20029;-77
2022/02/20 05:01:10;;;;;;;6.90;1.92;;;10.30;79.60;;;;;;5014501;28;20398;-76
2022/02/20 05:03:36;;;;;;;5.60;2.00;;;10.30;79.20;;;;;;5032278;28;20036;-76
2022/02/20 05:06:01;;;;;;;4.35;1.85;;;10.40;79.30;;;;;;5014209;28;20025;-78
2022/02/20 05:08:27;;;;;;;3.97;1.70;;;10.30;79.40;;;;;;5014553;28;20033;-77
2022/02/20 05:10:52;;;;;;;5.28;1.85;;;10.30;79.40;;;;;;5014263;28;20029;-78
2022/02/20 05:13:18;;;;;;;4.40;2.08;;;10.30;79.30;;;;;;5014475;28;20021;-77
2022/02/20 05:15:47;;;;;;;4.93;2.15;;;10.30;79.30;;;;;;5015125;28;20045;-77
2022/02/20 05:18:13;;;;;;;4.35;1.67;;;10.30;79.30;;;;;;5014535;28;20025;-77
2022/02/20 05:20:39;;;;;;;5.13;1.92;;;10.30;79.20;;;;;;5013888;28;20120;-77
2022/02/20 05:23:04;;;;;;;6.78;2.13;;;10.30;79.20;;;;;;5013775;28;20029;-76
2022/02/20 05:25:30;;;;;;;4.88;2.05;;;10.30;79.30;;;;;;5014030;28;20099;-78
2022/02/20 05:27:55;;;;;;;5.20;1.88;;;10.30;79.30;;;;;;5014372;28;20061;-79
2022/02/20 05:30:21;;;;;;;5.28;2.00;;;10.30;79.30;;;;;;5013395;28;20057;-77
2022/02/20 05:32:47;;;;;;;3.97;1.75;;;10.30;79.20;;;;;;5014202;28;20033;-78
2022/02/20 05:35:12;;;;;;;4.95;1.90;;;10.30;79.10;;;;;;5031339;28;20040;-76
2022/02/20 05:37:46;;;;;;;4.32;1.90;;;10.30;79.10;;;;;;5012120;28;20076;-77
2022/02/20 05:40:14;;;;;;;4.80;1.90;;;10.30;79.10;;;;;;5012917;28;20045;-78
2022/02/20 05:42:39;;;;;;;4.78;1.90;;;10.30;79.00;;;;;;5012736;28;20049;-77
2022/02/20 05:45:06;;;;;;;5.57;1.95;;;10.30;79.00;;;;;;5012955;28;20053;-76
2022/02/20 05:47:32;;;;;;;3.53;1.80;;;10.30;79.00;;;;;;5012501;28;20371;-76
2022/02/20 05:49:57;;;;;;;4.63;1.95;;;10.30;79.10;;;;;;5029503;28;20040;-77
2022/02/20 05:52:23;;;;;;;5.80;2.10;;;10.30;79.10;;;;;;5013806;28;20033;-77
2022/02/20 05:54:49;;;;;;;5.28;2.00;;;10.30;79.00;;;;;;5013824;28;20079;-76
2022/02/20 05:57:14;;;;;;;4.63;2.05;;;10.30;78.90;;;;;;5013841;28;20556;-77
2022/02/20 05:59:40;;;;;;;4.72;2.08;;;10.30;78.70;;;;;;5013686;28;20065;-77
2022/02/20 06:02:06;;;;;;;3.67;1.80;;;10.30;78.70;;;;;;5013260;28;20034;-79
2022/02/20 06:04:31;;;;;;;4.20;1.83;;;10.30;78.70;;;;;;5031642;28;20060;-77
2022/02/20 06:06:57;;;;;;;4.97;1.70;;;10.30;78.70;;;;;;5013916;28;20018;-78
2022/02/20 06:09:22;;;;;;;5.07;2.20;;;10.30;78.60;;;;;;5013772;28;20491;-77
2022/02/20 06:11:48;;;;;;;4.45;1.92;;;10.30;78.50;;;;;;5013770;28;20034;-79
2022/02/20 06:14:13;;;;;;;4.78;1.90;;;10.30;78.50;;;;;;5013470;28;20025;-77
2022/02/20 06:16:39;;;;;;;4.43;2.00;;;10.30;78.50;;;;;;5030678;28;20057;-79
2022/02/20 06:19:04;;;;;;;5.50;1.90;;;10.30;78.60;;;;;;5031093;28;20025;-78
2022/02/20 06:21:30;;;;;;;7.85;1.90;;;10.30;78.60;;;;;;5013846;28;20025;-77
2022/02/20 06:23:55;;;;;;;6.13;1.67;;;10.30;78.60;;;;;;5030402;28;20487;-79
2022/02/20 06:26:21;;;;;;;5.28;2.05;;;10.30;78.50;;;;;;5013081;28;20030;-77
2022/02/20 06:28:47;;;;;;;7.32;1.80;;;10.30;78.60;;;;;;5012826;28;20040;-77
2022/02/20 06:31:13;;;;;;;6.65;1.70;;;10.30;78.60;;;;;;5012848;28;20033;-77
2022/02/20 06:33:38;;;;;;;5.75;1.60;;;10.30;78.60;;;;;;5030292;28;20556;-78
2022/02/20 06:36:04;;;;;;;15.35;2.08;;;10.30;78.50;;;;;;5013379;28;20483;-77
2022/02/20 06:38:30;;;;;;;4.40;1.65;;;10.30;78.70;;;;;;5033254;28;20091;-77
2022/02/20 06:40:55;;;;;;;6.63;1.80;;;10.30;78.50;;;;;;5011785;28;20639;-76
2022/02/20 06:43:21;;;;;;;7.18;1.80;;;10.30;78.60;;;;;;5015069;28;20117;-78
2022/02/20 06:45:46;;;;;;;3.35;1.55;;;10.30;78.60;;;;;;5014949;28;20025;-77
2022/02/20 06:48:12;;;;;;;3.83;1.63;;;10.20;78.40;;;;;;5015702;28;20030;-76
2022/02/20 06:50:37;;;;;;;3.35;1.70;;;10.30;78.50;;;;;;5014387;28;20061;-79
2022/02/20 06:53:05;;;;;;;4.25;1.35;;;10.30;78.50;;;;;;5014694;28;20033;-76
2022/02/20 06:55:32;;;;;;;8.93;1.80;;;10.30;78.60;;;;;;5032897;28;20026;-77
2022/02/20 06:57:58;;;;;;;4.57;1.55;;;10.30;78.60;;;;;;5014423;28;20028;-76
2022/02/20 07:00:24;;;;;;;5.10;1.85;;;10.30;78.60;;;;;;5014441;28;20033;-76
2022/02/20 07:02:50;;;;;;;3.05;1.60;;;10.30;78.60;;;;;;5027451;28;20425;-77
2022/02/20 07:05:15;;;;;;;7.75;2.00;;;10.20;78.60;;;;;;5034751;28;20033;-76
2022/02/20 07:07:41;;;;;;;4.80;1.83;;;10.20;78.60;;;;;;5052184;28;20040;-77
2022/02/20 07:10:08;;;;;;;4.55;1.90;;;10.30;78.70;;;;;;5021816;28;20483;-76
2022/02/20 07:12:35;;;;;;;3.50;1.70;;;10.20;78.50;;;;;;5032702;28;20040;-79
2022/02/20 07:15:01;;;;;;;6.32;2.10;;;10.30;78.60;;;;;;5014118;28;20030;-77
2022/02/20 07:17:26;;;;;;;4.57;2.15;;;10.20;78.60;;;;;;5032415;28;20029;-78
2022/02/20 07:19:52;;;;;;;4.78;1.95;;;10.30;78.70;;;;;;5014150;28;20463;-77
2022/02/20 07:22:17;;;;;;;5.00;1.70;;;10.30;78.60;;;;;;5014545;28;20120;-77
2022/02/20 07:24:43;;;;;;;6.05;2.35;;;10.30;78.60;;;;;;5032490;28;20116;-77
2022/02/20 07:27:09;;;;;;;3.95;1.90;;;10.20;78.90;;;;;;5032484;28;20034;-78
2022/02/20 07:29:34;;;;;;;4.03;1.98;;;10.30;78.50;;;;;;5033787;28;20029;-77
2022/02/20 07:32:00;;;;;;;4.95;2.25;;;10.30;78.60;;;;;;5018242;28;20036;-77
2022/02/20 07:34:26;;;;;;;6.03;2.35;;;10.30;78.60;;;;;;5017966;28;20033;-77
2022/02/20 07:36:51;;;;;;;7.43;2.60;;;10.20;78.60;;;;;;5035453;28;20021;-78
2022/02/20 07:39:17;;;;;;;5.00;2.63;;;10.30;78.70;;;;;;5017480;28;20576;-77
2022/02/20 07:41:43;;;;;;;6.60;2.60;;;10.30;78.70;;;;;;5035400;28;20030;-77
2022/02/20 07:44:09;;;;;;;6.05;2.80;;;10.30;78.60;;;;;;5017549;28;20021;-78
2022/02/20 07:46:35;;;;;;;7.57;3.00;;;10.30;78.40;;;;;;5036668;28;20085;-77
2022/02/20 07:49:01;;;;;;;5.57;2.63;;;10.20;78.40;;;;;;5017649;28;20065;-78
2022/02/20 07:51:27;;;;;;;4.97;2.90;;;10.30;78.50;;;;;;5036180;28;20160;-77
2022/02/20 07:53:53;;;;;;;5.50;3.05;;;10.20;78.50;;;;;;5033509;28;20029;-76
2022/02/20 07:56:18;;;;;;;5.13;2.80;;;10.30;78.70;;;;;;5037550;28;20028;-77
2022/02/20 07:58:45;;;;;;;5.43;2.70;;;10.30;78.50;;;;;;5035732;28;20056;-77
2022/02/20 08:01:11;;;;;;;7.15;2.90;;;10.30;78.60;;;;;;5030928;28;20120;-77
2022/02/20 08:03:38;;;;;;;5.43;2.70;;;10.20;78.50;;;;;;5014513;28;20037;-77
2022/02/20 08:06:04;;;;;;;5.68;3.00;;;10.20;78.50;;;;;;5015240;28;20024;-77
2022/02/20 08:08:31;;;;;;;6.53;3.10;;;10.30;78.70;;;;;;5033073;28;20037;-79
2022/02/20 08:10:57;;;;;;;8.05;3.35;;;10.30;78.70;;;;;;5016505;28;20120;-78
2022/02/20 08:13:23;;;;;;;6.95;3.47;;;10.30;78.70;;;;;;5034705;28;20032;-78
2022/02/20 08:15:49;;;;;;;7.15;3.33;;;10.20;79.30;;;;;;5017297;28;20025;-79
2022/02/20 08:18:15;;;;;;;7.70;3.10;;;10.20;78.90;;;;;;5034556;28;20021;-77
2022/02/20 08:20:41;;;;;;;8.57;3.40;;;10.30;78.90;;;;;;5034425;28;20048;-78
2022/02/20 08:23:07;;;;;;;7.00;3.20;;;10.20;78.90;;;;;;5034047;28;20514;-77
2022/02/20 08:25:33;;;;;;;6.13;3.13;;;10.20;78.60;;;;;;5033259;28;20021;-77
2022/02/20 08:27:59;;;;;;;6.03;3.05;;;10.20;78.60;;;;;;5032956;28;20037;-77
2022/02/20 08:30:24;;;;;;;7.38;3.50;;;10.20;78.90;;;;;;5017477;28;20037;-77
2022/02/20 08:32:50;;;;;;;6.03;3.03;;;10.20;79.00;;;;;;5032751;28;20921;-79
2022/02/20 08:35:15;;;;;;;6.55;3.03;;;10.20;79.10;;;;;;5015566;28;20035;-78
2022/02/20 08:37:45;;;;;;;5.70;2.80;;;10.20;79.20;;;;;;5032570;28;20032;-76
2022/02/20 08:40:15;;;;;;;6.75;2.90;;;10.20;79.10;;;;;;5014330;28;20040;-78
2022/02/20 08:42:41;;;;;;;6.35;3.25;;;10.20;78.90;;;;;;5014324;28;20417;-77
2022/02/20 08:45:07;;;;;;;7.45;3.00;;;10.20;79.00;;;;;;5030071;28;20021;-77
2022/02/20 08:47:33;;;;;;;6.00;3.08;;;10.20;79.30;;;;;;5031989;28;20030;-77
2022/02/20 08:50:00;;;;;;;7.07;2.90;;;10.20;79.30;;;;;;5009358;28;20036;-81
2022/02/20 08:52:26;;;;;;;6.18;3.15;;;10.20;79.30;;;;;;5033917;28;20541;-79
2022/02/20 08:54:52;;;;;;;7.22;3.03;;;10.20;79.40;;;;;;5028907;28;20037;-78
2022/02/20 08:57:18;;;;;;;6.88;2.95;;;10.20;79.50;;;;;;5051564;28;20021;-79
2022/02/20 08:59:44;;;;;;;6.60;2.80;;;10.20;79.60;;;;;;5024154;28;20022;-77
2022/02/20 09:02:11;;;;;;;7.95;2.75;;;10.20;79.60;;;;;;5013230;28;20691;-80
2022/02/20 09:04:37;;;;;;;6.70;2.95;;;10.20;79.70;;;;;;5013659;28;20022;-76
2022/02/20 09:07:04;;;;;;;7.55;3.35;;;10.20;79.70;;;;;;5013686;28;20463;-79
2022/02/20 09:09:30;;;;;;;6.60;3.08;;;10.20;79.80;;;;;;5031016;28;20029;-77
2022/02/20 09:11:56;;;;;;;5.57;2.67;;;10.30;79.80;;;;;;5013892;28;20052;-79
2022/02/20 09:14:21;;;;;;;7.32;3.00;;;10.20;79.80;;;;;;5013810;28;20740;-77
2022/02/20 09:16:47;;;;;;;7.30;2.97;;;10.20;80.00;;;;;;5013313;28;20029;-78
2022/02/20 09:19:13;;;;;;;6.18;2.70;;;10.20;80.10;;;;;;5031080;28;20028;-78
2022/02/20 09:21:38;;;;;;;5.28;2.58;;;10.20;80.20;;;;;;5013974;28;20018;-79
2022/02/20 09:24:04;;;;;;;8.05;2.80;;;10.20;80.20;;;;;;5031036;28;20159;-77
2022/02/20 09:26:30;;;;;;;6.68;2.78;;;10.30;80.40;;;;;;5013062;28;20033;-81
2022/02/20 09:28:56;;;;;;;7.57;3.08;;;10.20;80.40;;;;;;5030602;28;20041;-79
2022/02/20 09:31:22;;;;;;;6.93;2.75;;;10.20;80.40;;;;;;5013332;28;20501;-79
2022/02/20 09:33:47;;;;;;;7.55;2.78;;;10.20;80.40;;;;;;5031039;28;20057;-76
2022/02/20 09:36:13;;;;;;;7.20;2.60;;;10.20;80.50;;;;;;5030705;28;20052;-78
2022/02/20 09:38:39;;;;;;;6.85;2.60;;;10.30;80.80;;;;;;5012828;28;20079;-78
2022/02/20 09:41:08;;;;;;;14.98;3.55;;;10.30;80.90;;;;;;5039572;28;20040;-79
2022/02/20 09:43:35;;;;;;;20.10;3.20;;;10.30;80.90;;;;;;5016106;28;20021;-77
2022/02/20 09:46:01;;;;;;;14.90;2.90;;;10.30;80.90;;;;;;5034267;28;20068;-79
2022/02/20 09:48:27;;;;;;;11.25;3.10;;;10.20;81.20;;;;;;5032962;28;20045;-77
2022/02/20 09:50:53;;;;;;;7.53;2.60;;;10.30;81.50;;;;;;5015414;28;20230;-79
2022/02/20 09:53:18;;;;;;;12.20;2.45;;;10.20;81.50;;;;;;5013658;28;20052;-78
2022/02/20 09:55:46;;;;;;;7.40;2.50;;;10.20;81.70;;;;;;5014996;28;20025;-78
2022/02/20 09:58:13;;;;;;;9.35;2.40;;;10.30;81.90;;;;;;5042843;28;20479;-79
2022/02/20 10:00:49;;;;;;;8.60;2.65;;;10.30;82.00;;;;;;5008014;28;20036;-78
2022/02/20 10:03:46;;;;;;;7.63;2.28;;;10.30;82.10;;;;;;5004555;28;20026;-80
2022/02/20 10:06:14;;;;;;;5.43;2.08;;;10.20;82.10;;;;;;5001296;28;20084;-78
2022/02/20 10:08:43;;;;;;;6.88;2.13;;;10.30;82.30;;;;;;4995247;28;20026;-79
2022/02/20 10:11:13;;;;;;;6.25;2.20;;;10.30;82.50;;;;;;5012437;28;20054;-77
2022/02/20 10:13:38;;;;;;;4.38;2.10;;;10.30;82.50;;;;;;5026327;28;20076;-78
2022/02/20 10:16:17;;;;;;;6.93;2.38;;;10.30;82.50;;;;;;5014067;28;20041;-77
2022/02/20 10:18:45;;;;;;;6.32;2.30;;;10.30;82.50;;;;;;5017745;28;20028;-79
2022/02/20 10:21:15;;;;;;;5.53;1.92;;;10.30;82.70;;;;;;5006910;28;20022;-78
2022/02/20 10:23:41;;;;;;;8.27;2.38;;;10.30;82.80;;;;;;4999978;28;20026;-78
2022/02/20 10:26:18;;;;;;;6.03;1.83;;;10.30;82.90;;;;;;5022444;28;20079;-79
2022/02/20 10:29:08;;;;;;;6.78;2.20;;;10.30;83.00;;;;;;5028527;28;20060;-77
2022/02/20 10:31:41;;;;;;;4.95;2.30;;;10.30;83.10;;;;;;5017814;28;20048;-78
2022/02/20 10:34:13;;;;;;;5.95;2.05;;;10.30;83.00;;;;;;5029942;28;20033;-82
2022/02/20 10:36:48;;;;;;;4.60;2.00;;;10.30;83.10;;;;;;5010428;28;20033;-78
2022/02/20 10:39:18;;;;;;;7.18;2.10;;;10.30;83.30;;;;;;5005124;28;20030;-80
2022/02/20 10:41:44;;;;;;;6.75;2.17;;;10.30;83.20;;;;;;5005214;28;20018;-79
2022/02/20 10:44:10;;;;;;;5.68;2.00;;;10.30;83.40;;;;;;5009264;28;20022;-77
2022/02/20 10:46:35;;;;;;;5.45;1.80;;;10.30;83.50;;;;;;5004161;28;20487;-81
2022/02/20 10:49:01;;;;;;;5.47;2.17;;;10.30;83.60;;;;;;4996993;28;20029;-78
2022/02/20 10:51:40;;;;;;;7.25;2.50;;;10.30;83.70;;;;;;5006393;28;20131;-79
2022/02/20 10:54:06;;;;;;;5.43;2.20;;;10.30;83.70;;;;;;5002923;28;20128;-76
2022/02/20 10:56:40;;;;;;;6.20;2.08;;;10.30;83.30;;;;;;5002912;28;20101;-78
2022/02/20 10:59:06;;;;;;;13.15;2.30;;;10.30;83.20;;;;;;4999729;28;20025;-77
2022/02/20 11:01:32;;;;;;;35.20;4.20;;;10.30;83.60;;;;;;4996808;28;20466;-80
2022/02/20 11:04:05;;;;;;;45.15;6.05;;;10.30;83.60;;;;;;5008550;28;20030;-76
2022/02/20 11:06:32;;;;;;;50.47;7.00;;;10.30;84.00;;;;;;5005322;28;20038;-80
2022/02/20 11:08:58;;;;;;;54.10;6.30;;;10.30;84.10;;;;;;5014649;28;20067;-78
2022/02/20 11:11:42;;;;;;;38.70;5.68;;;10.30;84.30;;;;;;5003992;28;20123;-78
2022/02/20 11:14:16;;;;;;;42.85;6.20;;;10.30;84.30;;;;;;5006296;28;20026;-77
2022/02/20 11:16:51;;;;;;;41.10;6.15;;;10.30;84.50;;;;;;5034855;28;20078;-77
2022/02/20 11:19:21;;;;;;;38.50;5.38;;;10.30;84.50;;;;;;5037342;28;20025;-81
2022/02/20 11:21:52;;;;;;;50.60;7.00;;;10.30;83.90;;;;;;5037076;28;20079;-81
2022/02/20 11:24:18;;;;;;;53.30;6.93;;;10.40;83.60;;;;;;5037233;28;20497;-80
2022/02/20 11:26:45;;;;;;;39.42;5.43;;;10.40;83.70;;;;;;5037051;28;20529;-78
2022/02/20 11:29:11;;;;;;;32.40;4.43;;;10.40;83.80;;;;;;5054971;28;20041;-78
2022/02/20 11:31:40;;;;;;;37.25;5.80;;;10.40;84.30;;;;;;5012356;28;20065;-78
2022/02/20 11:34:06;;;;;;;28.70;4.97;;;10.30;84.50;;;;;;5011925;28;20029;-77
2022/02/20 11:36:32;;;;;;;33.70;4.97;;;10.30;84.70;;;;;;5013261;28;20036;-79
2022/02/20 11:39:10;;;;;;;34.92;6.45;;;10.30;85.00;;;;;;5013575;28;20140;-77
2022/02/20 11:41:37;;;;;;;28.55;5.22;;;10.30;85.20;;;;;;5014517;28;20021;-79
2022/02/20 11:44:15;;;;;;;25.52;4.90;;;10.30;85.20;;;;;;5012244;28;20037;-77
2022/02/20 11:46:52;;;;;;;30.90;5.25;;;10.40;85.40;;;;;;5013453;28;20045;-76
2022/02/20 11:49:26;;;;;;;19.33;4.43;;;10.30;85.30;;;;;;5012429;28;20026;-78
2022/02/20 11:51:59;;;;;;;19.52;4.95;;;10.30;85.50;;;;;;5013689;28;20114;-79
2022/02/20 11:54:25;;;;;;;17.50;4.45;;;10.30;85.60;;;;;;5011460;28;20566;-77
2022/02/20 11:57:10;;;;;;;20.30;4.53;;;10.30;85.50;;;;;;5029370;28;20039;-77
2022/02/20 11:59:36;;;;;;;18.00;4.65;;;10.20;85.50;;;;;;4998013;28;20492;-77
2022/02/20 12:02:09;;;;;;;16.40;3.53;;;10.30;85.70;;;;;;5001008;28;20041;-77
2022/02/20 12:04:50;;;;;;;23.45;5.05;;;10.30;85.40;;;;;;5032810;28;20022;-78
2022/02/20 12:07:38;;;;;;;12.63;3.88;;;10.30;85.80;;;;;;5085290;23;20090;-77
2022/02/20 12:10:19;;;;;;;14.57;3.83;;;10.30;85.80;;;;;;5021087;28;20117;-76
2022/02/20 12:13:04;;;;;;;15.95;4.28;;;10.40;85.90;;;;;;5020925;28;20026;-76
2022/02/20 12:15:33;;;;;;;14.27;3.97;;;10.30;85.70;;;;;;5031882;28;20069;-76
2022/02/20 12:18:22;;;;;;;15.55;4.40;;;10.40;86.30;;;;;;5014480;28;20022;-77
2022/02/20 12:20:56;;;;;;;13.63;3.60;;;10.40;85.80;;;;;;5012921;28;20114;-76
2022/02/20 12:23:36;;;;;;;11.70;3.70;;;10.30;85.90;;;;;;5014139;28;20056;-76
2022/02/20 12:26:26;;;;;;;16.25;4.05;;;10.30;86.00;;;;;;5013115;28;20062;-77
2022/02/20 12:28:52;;;;;;;12.00;3.47;;;10.30;86.10;;;;;;5008952;28;20832;-77
2022/02/20 12:31:26;;;;;;;10.80;3.47;;;10.30;86.10;;;;;;4994861;28;20294;-77
2022/02/20 12:33:52;;;;;;;13.77;4.22;;;10.30;86.10;;;;;;4994476;28;20065;-77
2022/02/20 12:36:29;;;;;;;12.13;3.67;;;10.30;86.10;;;;;;5013428;28;20061;-77
2022/02/20 12:38:57;;;;;;;9.25;3.30;;;10.30;86.10;;;;;;5013140;28;20026;-75
2022/02/20 12:41:22;;;;;;;14.05;3.75;;;10.30;86.20;;;;;;5013591;28;20124;-76
2022/02/20 12:43:54;;;;;;;8.80;3.42;;;10.30;86.40;;;;;;5013447;28;20021;-77
2022/02/20 12:46:20;;;;;;;9.70;4.05;;;10.30;86.60;;;;;;5012713;28;20402;-77